°C

Conditions at local time : on    Forecast:

Nearby METAR Reports





EGKA - Shoreham-By-Sea, United Kingdom
Distance from station: ENE 4mi, 6km
Updated: Sat, 24-Jul-2021 7:50pm BST
NOT Current
Few Clouds
Few Clouds
 Wind from ESE
Wind: ESE 2 mph , 4 km/h
Temperature: 20°C
Dew Point: 14°C
Humidity: 69%
Barometer: 1007 hPa
Clouds: Few Clouds
Visibility: 6 miles , 10 km
Cloud details: Few Clouds 914 m
2021/07/24 18:50 EGKA 241850Z 11002KT 9999 FEW030 20/14 Q1007
EGKK - London/Gatwick A, United Kingdom
Distance from station: NNE 24mi, 39km
Updated: Sun, 25-Jul-2021 2:50am BST
Haze, Partly cloudy
Haze, Partly cloudy
 Wind from ENE
Wind: ENE 2 mph , 4 km/h
Temperature: 16°C
Dew Point: 15°C
Humidity: 94%
Barometer: 1007 hPa
Summary: Haze
Clouds: Partly Cloudy
Visibility: 1 mile , 2 km
2021/07/25 01:50 EGKK 250150Z 06002KT 2200 HZ NSC 16/15 Q1007
 
EGLF - Farnborough, United Kingdom
Distance from station: NNW 37mi, 59km
Updated: Sun, 25-Jul-2021 2:50am BST
Haze, Overcast
Haze, Overcast
 Wind from E
Wind: E 6 mph , 9 km/h
Temperature: 17°C
Dew Point: 16°C
Humidity: 94%
Barometer: 1007 hPa
Summary: Haze
Clouds: Overcast
Visibility: 3 miles , 4 km
Cloud details: Overcast 152 m
2021/07/25 01:50 EGLF 250150Z AUTO 08005KT 4100 HZ OVC005/// 17/16 Q1007
EGVO - Odiham Raf, United Kingdom
Distance from station: NW 38mi, 61km
Updated: Sun, 25-Jul-2021 2:50am BST
Mist, Overcast
Mist, Overcast
 Wind from ENE
Wind: ENE 5 mph , 7 km/h
Temperature: 17°C
Dew Point: 16°C
Humidity: 94%
Barometer: 1007 hPa
Summary: Mist
Clouds: Overcast
Visibility: 1 mile , 2 km
Cloud details: Overcast 91 m
2021/07/25 01:50 EGVO 250150Z AUTO 07004KT 2100 BR OVC003/// 17/16 Q1007 RERA